Time;durP1;ratioP1;P1;durP2;ratioP2;P2;SDS_P1;SDS_P2;PMS_P1;PMS_P2;Temp;Humidity;BMP_temperature;BMP_pressure;BME280_temperature;BME280_humidity;BME280_pressure;Samples;Min_cycle;Max_cycle;Signal;HPM_P1;HPM_P2
2023/06/05 00:02:13;;;;;;;20.13;19.33;;;23.90;44.60;;;;;;5070917;28;20530;-65
2023/06/05 00:04:40;;;;;;;20.50;19.70;;;23.90;44.70;;;;;;5070905;28;20442;-64
2023/06/05 00:07:07;;;;;;;21.17;20.40;;;23.90;44.70;;;;;;5070497;28;20451;-64
2023/06/05 00:09:34;;;;;;;20.10;19.30;;;24.00;44.80;;;;;;5070981;28;20435;-64
2023/06/05 00:12:01;;;;;;;20.07;19.23;;;23.90;44.80;;;;;;5070798;28;20487;-64
2023/06/05 00:14:28;;;;;;;20.40;19.70;;;23.90;44.90;;;;;;5070865;28;20725;-64
2023/06/05 00:16:57;;;;;;;20.30;19.60;;;23.90;45.00;;;;;;5070290;28;20983;-64
2023/06/05 00:19:24;;;;;;;20.13;19.33;;;23.90;45.00;;;;;;5070818;28;20447;-64
2023/06/05 00:21:52;;;;;;;20.23;19.40;;;23.90;45.00;;;;;;5070764;28;20561;-64
2023/06/05 00:24:19;;;;;;;20.43;19.63;;;23.90;45.60;;;;;;5072550;28;20497;-64
2023/06/05 00:26:48;;;;;;;21.30;20.50;;;23.90;45.20;;;;;;5074206;28;20475;-64
2023/06/05 00:29:14;;;;;;;19.70;19.00;;;24.00;45.30;;;;;;5073955;28;20500;-64
2023/06/05 00:31:43;;;;;;;20.73;19.93;;;23.90;45.30;;;;;;5074219;28;20897;-64
2023/06/05 00:34:11;;;;;;;20.67;19.87;;;23.90;45.40;;;;;;5074196;28;20475;-64
2023/06/05 00:36:40;;;;;;;20.60;19.80;;;23.90;45.50;;;;;;5073975;28;20474;-64
2023/06/05 00:39:08;;;;;;;20.07;19.27;;;23.90;45.50;;;;;;5074333;28;20816;-65
2023/06/05 00:41:37;;;;;;;20.27;19.57;;;23.90;45.60;;;;;;5073526;28;20482;-64
2023/06/05 00:44:04;;;;;;;20.30;19.47;;;23.90;45.60;;;;;;5073886;28;20479;-64
2023/06/05 00:46:31;;;;;;;20.10;19.40;;;23.90;45.70;;;;;;5073885;28;20475;-64
2023/06/05 00:48:58;;;;;;;20.43;19.63;;;23.90;45.80;;;;;;5073909;28;20521;-64
2023/06/05 00:51:26;;;;;;;21.13;20.23;;;23.90;45.80;;;;;;5073500;28;20499;-65
2023/06/05 00:53:54;;;;;;;19.57;18.87;;;23.90;45.90;;;;;;5073424;28;20462;-64
2023/06/05 00:56:22;;;;;;;21.10;20.30;;;23.90;46.00;;;;;;5073634;28;20497;-64
2023/06/05 00:58:49;;;;;;;20.30;19.50;;;23.90;46.10;;;;;;5073794;28;20791;-65
2023/06/05 01:01:16;;;;;;;19.77;19.07;;;23.90;46.10;;;;;;5073619;28;20497;-65
2023/06/05 01:03:44;;;;;;;20.07;19.37;;;23.90;46.20;;;;;;5071058;28;20575;-64
2023/06/05 01:06:11;;;;;;;20.50;19.70;;;23.90;46.30;;;;;;5053437;28;20448;-64
2023/06/05 01:08:41;;;;;;;20.20;19.40;;;23.90;46.40;;;;;;5053570;28;20476;-64
2023/06/05 01:11:15;;;;;;;20.27;19.47;;;23.90;46.40;;;;;;5053452;28;20526;-64
2023/06/05 01:13:48;;;;;;;20.57;19.80;;;23.80;46.40;;;;;;5053510;28;20442;-64
2023/06/05 01:16:15;;;;;;;20.03;19.33;;;23.80;46.60;;;;;;5053238;28;20447;-64
2023/06/05 01:18:46;;;;;;;21.17;20.37;;;23.80;46.60;;;;;;5053320;28;20486;-64
2023/06/05 01:21:16;;;;;;;21.30;20.50;;;23.80;46.70;;;;;;5053221;28;21037;-64
2023/06/05 01:23:45;;;;;;;21.10;20.30;;;23.80;46.70;;;;;;5053146;28;20571;-64
2023/06/05 01:26:19;;;;;;;20.90;20.10;;;23.80;46.80;;;;;;5053116;28;20486;-64
2023/06/05 01:28:50;;;;;;;21.07;20.27;;;23.80;46.90;;;;;;5053229;28;20448;-64
2023/06/05 01:31:22;;;;;;;20.30;19.40;;;23.80;46.90;;;;;;5053081;28;20606;-64
2023/06/05 01:33:56;;;;;;;21.17;20.13;;;23.80;47.00;;;;;;5053193;28;20472;-64
2023/06/05 01:36:23;;;;;;;20.10;19.30;;;23.80;47.00;;;;;;5051677;28;20452;-65
2023/06/05 01:38:54;;;;;;;20.80;19.80;;;23.70;47.10;;;;;;5053049;28;20495;-64
2023/06/05 01:41:21;;;;;;;20.77;19.97;;;23.70;47.20;;;;;;5053923;28;20511;-65
2023/06/05 01:43:48;;;;;;;20.67;19.87;;;23.70;47.40;;;;;;5052926;28;20516;-64
2023/06/05 01:46:17;;;;;;;20.27;19.47;;;23.70;47.30;;;;;;5052631;28;20817;-64
2023/06/05 01:48:45;;;;;;;20.40;19.70;;;23.70;47.40;;;;;;5052775;28;20497;-65
2023/06/05 01:51:12;;;;;;;20.37;19.57;;;23.70;47.40;;;;;;5052685;28;20567;-65
2023/06/05 01:53:39;;;;;;;20.73;19.77;;;23.70;47.50;;;;;;5052771;28;20487;-64
2023/06/05 01:56:08;;;;;;;20.23;19.43;;;23.70;47.60;;;;;;5052490;28;21002;-64
2023/06/05 01:58:36;;;;;;;20.70;20.00;;;23.70;47.70;;;;;;5052640;28;20827;-65
2023/06/05 02:01:05;;;;;;;21.10;20.30;;;23.70;47.70;;;;;;5052463;28;20502;-65
2023/06/05 02:03:32;;;;;;;20.90;19.90;;;23.70;47.70;;;;;;5052413;28;20512;-64
2023/06/05 02:05:59;;;;;;;20.13;19.43;;;23.70;47.70;;;;;;5052412;28;20442;-64
2023/06/05 02:08:27;;;;;;;21.03;20.23;;;23.70;47.80;;;;;;5052406;28;20448;-64
2023/06/05 02:10:54;;;;;;;19.80;19.10;;;23.70;48.00;;;;;;5052386;28;20464;-64
2023/06/05 02:13:24;;;;;;;20.43;19.63;;;23.70;48.00;;;;;;5052443;28;20463;-64
2023/06/05 02:15:56;;;;;;;20.73;19.87;;;23.70;48.10;;;;;;5052192;28;20627;-64
2023/06/05 02:18:25;;;;;;;20.30;19.50;;;23.70;48.20;;;;;;5052268;28;20950;-64
2023/06/05 02:20:56;;;;;;;20.93;20.23;;;23.70;48.10;;;;;;5052280;28;20963;-64
2023/06/05 02:23:23;;;;;;;20.00;19.30;;;23.70;48.20;;;;;;5052056;28;20483;-64
2023/06/05 02:25:50;;;;;;;20.30;19.50;;;23.70;48.30;;;;;;5051927;28;20535;-64
2023/06/05 02:28:17;;;;;;;22.20;21.30;;;23.70;48.20;;;;;;5052158;28;20887;-65
2023/06/05 02:30:45;;;;;;;21.43;20.63;;;23.70;48.20;;;;;;5051909;28;20479;-64
2023/06/05 02:33:14;;;;;;;20.77;19.97;;;23.70;48.30;;;;;;5051824;28;20468;-64
2023/06/05 02:35:41;;;;;;;23.17;22.17;;;23.70;48.40;;;;;;5051939;28;20797;-65
2023/06/05 02:38:09;;;;;;;21.20;20.30;;;23.70;48.40;;;;;;5051796;28;20463;-64
2023/06/05 02:40:36;;;;;;;21.33;20.50;;;23.70;48.50;;;;;;5051648;28;20444;-64
2023/06/05 02:43:05;;;;;;;20.70;19.90;;;23.70;48.50;;;;;;5052327;28;20995;-64
2023/06/05 02:45:34;;;;;;;20.20;19.40;;;23.70;48.40;;;;;;5063050;28;20447;-63
2023/06/05 02:48:02;;;;;;;20.50;19.70;;;23.70;48.50;;;;;;5071452;28;20443;-64
2023/06/05 02:50:29;;;;;;;20.93;20.13;;;23.70;48.50;;;;;;5071852;28;20514;-62
2023/06/05 02:52:56;;;;;;;20.57;19.70;;;23.70;48.50;;;;;;5071615;28;20825;-63
2023/06/05 02:55:23;;;;;;;21.57;20.77;;;23.70;48.50;;;;;;5071450;28;20855;-63
2023/06/05 02:57:50;;;;;;;21.33;20.53;;;23.70;48.60;;;;;;5071372;28;20494;-64
2023/06/05 03:00:18;;;;;;;21.23;20.30;;;23.60;48.70;;;;;;5071496;28;20474;-64
2023/06/05 03:02:48;;;;;;;21.80;21.00;;;23.60;48.70;;;;;;5071450;28;20495;-64
2023/06/05 03:05:24;;;;;;;21.43;20.43;;;23.70;49.00;;;;;;5071197;28;20546;-63
2023/06/05 03:07:53;;;;;;;22.00;21.00;;;23.70;48.70;;;;;;5071546;28;20501;-63
2023/06/05 03:10:20;;;;;;;20.87;20.10;;;23.70;48.80;;;;;;5071503;28;20443;-63
2023/06/05 03:12:47;;;;;;;21.50;20.60;;;23.70;48.80;;;;;;5071429;28;20451;-64
2023/06/05 03:15:16;;;;;;;21.33;20.57;;;23.60;48.80;;;;;;5070988;28;20489;-63
2023/06/05 03:17:44;;;;;;;21.60;20.80;;;23.60;48.80;;;;;;5071485;28;20876;-63
2023/06/05 03:20:12;;;;;;;22.57;21.67;;;23.60;48.90;;;;;;5071348;28;20447;-65
2023/06/05 03:22:41;;;;;;;20.90;20.10;;;23.60;48.80;;;;;;5071297;28;20839;-64
2023/06/05 03:25:09;;;;;;;21.50;20.70;;;23.60;48.90;;;;;;5071111;28;20482;-64
2023/06/05 03:27:36;;;;;;;22.10;21.10;;;23.60;48.90;;;;;;5071120;28;20459;-64
2023/06/05 03:30:03;;;;;;;21.77;20.97;;;23.60;49.00;;;;;;5071319;28;20614;-63
2023/06/05 03:32:30;;;;;;;22.67;21.77;;;23.60;49.10;;;;;;5071167;28;20463;-63
2023/06/05 03:34:57;;;;;;;21.90;21.00;;;23.60;49.00;;;;;;5070863;28;20443;-63
2023/06/05 03:37:24;;;;;;;21.83;20.83;;;23.60;49.10;;;;;;5071016;28;20454;-64
2023/06/05 03:39:52;;;;;;;22.00;21.20;;;23.60;49.10;;;;;;5071208;28;20493;-64
2023/06/05 03:42:19;;;;;;;21.90;21.00;;;23.60;49.10;;;;;;5068109;28;20527;-64
2023/06/05 03:44:46;;;;;;;21.23;20.43;;;23.60;49.00;;;;;;5051117;28;20515;-64
2023/06/05 03:47:14;;;;;;;22.27;21.27;;;23.60;49.00;;;;;;5050977;28;20491;-64
2023/06/05 03:49:45;;;;;;;22.07;21.27;;;23.60;49.10;;;;;;5051067;28;20491;-64
2023/06/05 03:52:14;;;;;;;22.23;21.43;;;23.50;49.00;;;;;;5050970;28;20499;-64
2023/06/05 03:54:44;;;;;;;22.23;21.30;;;23.50;49.10;;;;;;5051016;28;20475;-63
2023/06/05 03:57:14;;;;;;;22.80;21.80;;;23.50;49.10;;;;;;5051013;28;20479;-61
2023/06/05 03:59:41;;;;;;;21.53;20.70;;;23.60;49.10;;;;;;5053456;28;20459;-62
2023/06/05 04:02:08;;;;;;;23.30;22.40;;;23.60;49.20;;;;;;5054822;28;20506;-64
2023/06/05 04:04:35;;;;;;;23.30;22.40;;;23.60;49.30;;;;;;5056130;28;20525;-64
2023/06/05 04:07:02;;;;;;;23.20;22.30;;;23.60;49.30;;;;;;5073993;28;20526;-61
2023/06/05 04:09:29;;;;;;;22.80;21.90;;;23.60;49.30;;;;;;5074691;28;20880;-63
2023/06/05 04:11:56;;;;;;;23.70;22.70;;;23.50;49.20;;;;;;5074606;28;20834;-62
2023/06/05 04:14:24;;;;;;;23.20;22.30;;;23.60;49.30;;;;;;5074680;28;20596;-64
2023/06/05 04:16:51;;;;;;;24.20;23.30;;;23.60;49.30;;;;;;5074048;28;20451;-64
2023/06/05 04:19:18;;;;;;;24.20;23.10;;;23.60;49.40;;;;;;5074352;28;20482;-63
2023/06/05 04:21:45;;;;;;;25.03;24.03;;;23.50;49.40;;;;;;5074393;28;21013;-64
2023/06/05 04:24:12;;;;;;;24.73;23.53;;;23.60;49.70;;;;;;5074375;28;20518;-63
2023/06/05 04:26:41;;;;;;;24.97;23.77;;;23.50;50.10;;;;;;5073646;28;20479;-64
2023/06/05 04:29:13;;;;;;;25.57;24.17;;;23.60;50.50;;;;;;5074386;28;20467;-62
2023/06/05 04:31:42;;;;;;;25.20;23.70;;;23.60;50.80;;;;;;5074161;28;20463;-63
2023/06/05 04:34:09;;;;;;;25.13;23.73;;;23.50;51.10;;;;;;5074129;28;20474;-61
2023/06/05 04:36:37;;;;;;;26.20;24.43;;;23.50;51.10;;;;;;5073923;28;20439;-62
2023/06/05 04:39:06;;;;;;;25.67;24.37;;;23.50;51.20;;;;;;5074193;28;20821;-61
2023/06/05 04:41:34;;;;;;;28.73;26.93;;;23.50;51.10;;;;;;5073887;28;20475;-64
2023/06/05 04:44:01;;;;;;;26.60;24.77;;;23.50;51.20;;;;;;5074087;28;20566;-63
2023/06/05 04:46:28;;;;;;;27.03;25.43;;;23.50;51.10;;;;;;5073876;28;20493;-62
2023/06/05 04:48:57;;;;;;;25.87;24.13;;;23.50;51.10;;;;;;5073926;28;20443;-62
2023/06/05 04:51:24;;;;;;;25.07;23.67;;;23.50;51.30;;;;;;5073816;28;20493;-63
2023/06/05 04:53:52;;;;;;;24.90;23.37;;;23.50;51.10;;;;;;5073827;28;20497;-64
2023/06/05 04:56:21;;;;;;;24.43;22.93;;;23.50;51.20;;;;;;5073519;28;20447;-63
2023/06/05 04:58:50;;;;;;;24.33;23.03;;;23.50;51.20;;;;;;5073683;28;20447;-63
2023/06/05 05:01:17;;;;;;;25.23;23.93;;;23.50;51.30;;;;;;5073636;28;20471;-62
2023/06/05 05:03:45;;;;;;;25.17;24.07;;;23.50;51.10;;;;;;5073607;28;20485;-63
2023/06/05 05:06:16;;;;;;;23.83;22.63;;;23.50;51.10;;;;;;5073486;28;20526;-64
2023/06/05 05:08:45;;;;;;;26.17;24.27;;;23.50;51.10;;;;;;5073677;28;20938;-63
2023/06/05 05:11:13;;;;;;;25.10;23.90;;;23.50;51.20;;;;;;5073582;28;20842;-61
2023/06/05 05:13:40;;;;;;;25.27;23.80;;;23.50;51.20;;;;;;5073546;28;20439;-61
2023/06/05 05:16:07;;;;;;;25.47;24.27;;;23.50;51.10;;;;;;5073372;28;20943;-64
2023/06/05 05:18:36;;;;;;;23.40;22.30;;;23.50;51.10;;;;;;5073327;28;20534;-64
2023/06/05 05:21:04;;;;;;;24.00;22.80;;;23.50;51.20;;;;;;5073506;28;20877;-60
2023/06/05 05:23:33;;;;;;;23.70;22.47;;;23.50;51.10;;;;;;5073367;28;20515;-62
2023/06/05 05:26:00;;;;;;;24.83;23.63;;;23.50;50.90;;;;;;5073212;28;20439;-62
2023/06/05 05:28:27;;;;;;;24.37;23.27;;;23.50;51.10;;;;;;5073245;28;20537;-64
2023/06/05 05:30:56;;;;;;;24.30;23.00;;;23.50;51.20;;;;;;5073017;28;21059;-63
2023/06/05 05:33:24;;;;;;;23.97;22.80;;;23.50;51.10;;;;;;5072983;28;20950;-64
2023/06/05 05:35:50;;;;;;;23.80;22.80;;;23.50;51.20;;;;;;5073085;28;20717;-63
2023/06/05 05:38:17;;;;;;;24.87;23.57;;;23.50;51.00;;;;;;5073214;28;20483;-62
2023/06/05 05:40:46;;;;;;;23.70;22.47;;;23.40;51.00;;;;;;5072688;28;20918;-62
2023/06/05 05:43:13;;;;;;;25.10;23.80;;;23.50;51.20;;;;;;5072945;28;20458;-64
2023/06/05 05:45:42;;;;;;;24.57;23.37;;;23.50;51.30;;;;;;5072715;28;20483;-62
2023/06/05 05:48:09;;;;;;;23.63;22.43;;;23.50;51.10;;;;;;5072844;28;20450;-64
2023/06/05 05:50:36;;;;;;;24.10;23.00;;;23.40;51.10;;;;;;5072624;28;20542;-64
2023/06/05 05:53:04;;;;;;;24.10;22.90;;;23.50;51.20;;;;;;5072670;28;20460;-63
2023/06/05 05:55:31;;;;;;;24.60;23.37;;;23.40;51.10;;;;;;5072587;28;20810;-62
2023/06/05 05:57:59;;;;;;;24.33;22.83;;;23.40;51.10;;;;;;5072609;28;20486;-64
2023/06/05 06:00:28;;;;;;;23.30;22.23;;;23.40;51.00;;;;;;5072612;28;20482;-61
2023/06/05 06:02:55;;;;;;;24.60;23.50;;;23.50;51.00;;;;;;5072381;28;20499;-64
2023/06/05 06:05:22;;;;;;;24.77;23.73;;;23.50;51.00;;;;;;5072367;28;20510;-64
2023/06/05 06:07:49;;;;;;;24.70;23.60;;;23.50;51.00;;;;;;5072241;28;20439;-64
2023/06/05 06:10:16;;;;;;;24.47;23.37;;;23.40;51.40;;;;;;5072228;28;20954;-66
2023/06/05 06:12:44;;;;;;;24.90;23.80;;;23.40;51.00;;;;;;5072275;28;20463;-64
2023/06/05 06:15:12;;;;;;;25.30;24.10;;;23.50;51.00;;;;;;5072282;28;20475;-62
2023/06/05 06:17:39;;;;;;;25.50;24.30;;;23.50;51.00;;;;;;5071999;28;20447;-64
2023/06/05 06:20:09;;;;;;;25.17;24.07;;;23.50;51.00;;;;;;5072312;28;20443;-64
2023/06/05 06:22:36;;;;;;;24.17;23.07;;;23.50;51.00;;;;;;5071390;28;20463;-65
2023/06/05 06:25:03;;;;;;;24.67;23.50;;;23.50;51.00;;;;;;5072066;28;20569;-63
2023/06/05 06:27:30;;;;;;;24.60;23.50;;;23.50;51.00;;;;;;5071848;28;20470;-61
2023/06/05 06:29:58;;;;;;;24.90;23.63;;;23.40;50.90;;;;;;5072020;28;20450;-64
2023/06/05 06:32:26;;;;;;;25.30;24.20;;;23.50;50.90;;;;;;5071886;28;20467;-63
2023/06/05 06:34:54;;;;;;;25.17;24.07;;;23.50;51.00;;;;;;5071957;28;20443;-63
2023/06/05 06:37:21;;;;;;;24.70;23.50;;;23.50;50.90;;;;;;5071665;28;20443;-64
2023/06/05 06:39:48;;;;;;;24.33;23.23;;;23.40;50.80;;;;;;5071997;28;20471;-64
2023/06/05 06:42:16;;;;;;;24.93;23.60;;;23.40;50.90;;;;;;5071651;28;20468;-64
2023/06/05 06:44:43;;;;;;;25.77;24.57;;;23.40;50.80;;;;;;5071709;28;20570;-64
2023/06/05 06:47:10;;;;;;;25.40;24.30;;;23.40;50.80;;;;;;5071609;28;20450;-64
2023/06/05 06:49:39;;;;;;;25.00;23.87;;;23.40;50.90;;;;;;5071847;28;20439;-64
2023/06/05 06:52:06;;;;;;;24.67;23.53;;;23.40;51.00;;;;;;5071593;28;20459;-63
2023/06/05 06:54:33;;;;;;;24.63;23.40;;;23.40;50.90;;;;;;5071659;28;20474;-64
2023/06/05 06:57:00;;;;;;;24.47;23.27;;;23.40;50.90;;;;;;5071462;28;20475;-63
2023/06/05 06:59:27;;;;;;;24.70;23.40;;;23.40;50.90;;;;;;5071626;28;20949;-64
2023/06/05 07:02:12;;;;;;;24.40;23.37;;;23.40;50.90;;;;;;5071480;28;20459;-64
2023/06/05 07:04:42;;;;;;;24.97;23.87;;;23.40;50.90;;;;;;5071314;28;20482;-63
2023/06/05 07:07:11;;;;;;;23.87;22.77;;;23.40;50.90;;;;;;5071359;28;20482;-63
2023/06/05 07:09:38;;;;;;;24.37;23.20;;;23.40;51.00;;;;;;5071415;28;20448;-64
2023/06/05 07:12:06;;;;;;;23.70;22.70;;;23.40;50.90;;;;;;5071325;28;20502;-64
2023/06/05 07:14:33;;;;;;;24.30;23.30;;;23.40;51.10;;;;;;5071413;28;20445;-62
2023/06/05 07:17:01;;;;;;;24.23;23.23;;;23.40;51.10;;;;;;5071194;28;20439;-64
2023/06/05 07:19:28;;;;;;;23.93;22.83;;;23.40;51.00;;;;;;5071353;28;20781;-65
2023/06/05 07:21:58;;;;;;;24.70;23.60;;;23.40;51.00;;;;;;5071290;28;20463;-64
2023/06/05 07:24:25;;;;;;;24.27;23.23;;;23.50;50.90;;;;;;5071153;28;20482;-64
2023/06/05 07:26:53;;;;;;;24.37;23.17;;;23.50;50.80;;;;;;5071114;28;20482;-64
2023/06/05 07:29:20;;;;;;;23.53;22.47;;;23.40;50.90;;;;;;5071405;28;20814;-64
2023/06/05 07:31:48;;;;;;;24.00;22.90;;;23.50;51.00;;;;;;5071206;28;20481;-64
2023/06/05 07:34:16;;;;;;;23.90;22.90;;;23.40;51.00;;;;;;5073156;28;20446;-64
2023/06/05 07:36:45;;;;;;;23.37;22.27;;;23.40;50.90;;;;;;5075165;28;20447;-64
2023/06/05 07:39:14;;;;;;;24.10;22.90;;;23.40;51.00;;;;;;5075208;28;20475;-64
2023/06/05 07:41:41;;;;;;;24.03;22.97;;;23.40;50.90;;;;;;5074977;28;20482;-64
2023/06/05 07:44:09;;;;;;;24.70;23.50;;;23.50;50.90;;;;;;5075068;28;20530;-64
2023/06/05 07:46:37;;;;;;;25.17;24.00;;;23.40;50.90;;;;;;5074786;28;20942;-64
2023/06/05 07:49:04;;;;;;;24.27;23.17;;;23.50;50.80;;;;;;5075090;28;20486;-65
2023/06/05 07:51:33;;;;;;;24.43;23.33;;;23.50;50.90;;;;;;5075016;28;20575;-65
2023/06/05 07:54:00;;;;;;;25.00;23.90;;;23.50;50.90;;;;;;5074886;28;20483;-64
2023/06/05 07:56:31;;;;;;;24.77;23.53;;;23.40;50.80;;;;;;5074758;28;20439;-64
2023/06/05 07:58:58;;;;;;;25.63;24.43;;;23.50;50.80;;;;;;5074868;28;20860;-65
2023/06/05 08:01:25;;;;;;;25.17;24.07;;;23.40;50.90;;;;;;5074687;28;20506;-64
2023/06/05 08:03:52;;;;;;;24.50;23.40;;;23.50;51.00;;;;;;5074857;28;20450;-65
2023/06/05 08:06:19;;;;;;;25.60;24.40;;;23.40;51.40;;;;;;5074469;28;20537;-64
2023/06/05 08:08:46;;;;;;;24.97;23.77;;;23.50;50.80;;;;;;5074619;28;20957;-65
2023/06/05 08:11:13;;;;;;;24.87;23.70;;;23.50;50.90;;;;;;5074733;28;21039;-64
2023/06/05 08:13:41;;;;;;;25.83;24.57;;;23.50;50.80;;;;;;5074536;28;20447;-64
2023/06/05 08:16:08;;;;;;;25.40;24.23;;;23.50;50.90;;;;;;5074457;28;20475;-65
2023/06/05 08:18:35;;;;;;;25.63;24.43;;;23.50;50.70;;;;;;5074591;28;20485;-64
2023/06/05 08:21:04;;;;;;;24.30;23.20;;;23.50;50.70;;;;;;5074298;28;20467;-65
2023/06/05 08:23:31;;;;;;;24.57;23.47;;;23.50;50.60;;;;;;5074402;28;20525;-65
2023/06/05 08:25:58;;;;;;;24.13;22.93;;;23.50;50.50;;;;;;5073998;28;20565;-65
2023/06/05 08:28:24;;;;;;;24.43;23.23;;;23.50;50.40;;;;;;5074296;28;20482;-64
2023/06/05 08:30:53;;;;;;;25.07;23.80;;;23.50;50.50;;;;;;5074179;28;20486;-64
2023/06/05 08:33:20;;;;;;;24.77;23.57;;;23.50;50.70;;;;;;5074218;28;20485;-64
2023/06/05 08:35:47;;;;;;;23.93;22.83;;;23.50;50.80;;;;;;5074146;28;20442;-64
2023/06/05 08:38:14;;;;;;;24.00;22.90;;;23.50;50.70;;;;;;5074211;28;20481;-64
2023/06/05 08:40:45;;;;;;;24.10;22.93;;;23.50;50.50;;;;;;5073973;28;20534;-65
2023/06/05 08:43:12;;;;;;;24.03;22.93;;;23.50;50.40;;;;;;5074565;28;20455;-65
2023/06/05 08:45:39;;;;;;;24.47;23.03;;;23.50;50.30;;;;;;5073382;28;20519;-64
2023/06/05 08:48:09;;;;;;;24.50;23.40;;;23.50;50.30;;;;;;5073822;28;20946;-64
2023/06/05 08:50:39;;;;;;;25.80;24.70;;;23.50;50.40;;;;;;5073922;28;20435;-64
2023/06/05 08:53:07;;;;;;;25.47;24.20;;;23.50;50.50;;;;;;5073879;28;20486;-64
2023/06/05 08:55:34;;;;;;;26.90;25.70;;;23.50;50.50;;;;;;5073838;28;20478;-64
2023/06/05 08:58:03;;;;;;;25.00;23.87;;;23.50;50.40;;;;;;5073637;28;20861;-64
2023/06/05 09:00:30;;;;;;;24.50;23.20;;;23.50;50.40;;;;;;5073805;28;20745;-64
2023/06/05 09:02:59;;;;;;;25.13;24.07;;;23.50;50.40;;;;;;5073622;28;20502;-65
2023/06/05 09:05:27;;;;;;;24.33;23.23;;;23.50;50.60;;;;;;5073661;28;20519;-65
2023/06/05 09:07:54;;;;;;;24.10;23.00;;;23.50;50.70;;;;;;5073460;28;20475;-64
2023/06/05 09:10:26;;;;;;;25.77;24.67;;;23.50;50.60;;;;;;5073540;28;20457;-64
2023/06/05 09:12:57;;;;;;;23.47;22.57;;;23.50;50.40;;;;;;5073396;28;20528;-65
2023/06/05 09:15:26;;;;;;;24.10;23.10;;;23.50;50.30;;;;;;5073431;28;20478;-64
2023/06/05 09:18:05;;;;;;;24.17;23.17;;;23.50;50.20;;;;;;5073191;28;20982;-64
2023/06/05 09:20:34;;;;;;;22.60;21.57;;;23.50;49.90;;;;;;5073473;28;20477;-64
2023/06/05 09:23:02;;;;;;;23.93;22.93;;;23.50;49.70;;;;;;5073278;28;20447;-64
2023/06/05 09:25:47;;;;;;;24.70;23.60;;;23.50;49.70;;;;;;5073129;28;20483;-64
2023/06/05 09:28:15;;;;;;;24.37;23.20;;;23.50;49.80;;;;;;5073164;28;20496;-64
2023/06/05 09:31:02;;;;;;;25.40;24.10;;;23.50;49.80;;;;;;5073038;28;20446;-65
2023/06/05 09:33:31;;;;;;;24.80;23.60;;;23.50;49.90;;;;;;5073185;28;20810;-64
2023/06/05 09:36:08;;;;;;;25.37;24.13;;;23.60;50.00;;;;;;5072910;28;20530;-64
2023/06/05 09:38:36;;;;;;;25.20;24.10;;;23.60;49.90;;;;;;5073045;28;20475;-64
2023/06/05 09:41:06;;;;;;;24.50;23.13;;;23.50;49.90;;;;;;5072835;28;20471;-65
2023/06/05 09:43:34;;;;;;;25.13;24.03;;;23.60;50.50;;;;;;5072804;28;20479;-65
2023/06/05 09:46:07;;;;;;;24.50;23.30;;;23.60;49.90;;;;;;5072678;28;20514;-65
2023/06/05 09:48:35;;;;;;;23.70;22.70;;;23.60;49.90;;;;;;5072868;28;20447;-62
2023/06/05 09:51:12;;;;;;;23.90;22.63;;;23.60;49.80;;;;;;5070646;28;20833;-62
2023/06/05 09:53:43;;;;;;;23.37;22.37;;;23.60;49.60;;;;;;5072778;28;20443;-59
2023/06/05 09:56:14;;;;;;;23.53;22.33;;;23.60;49.10;;;;;;5071594;28;20443;-57
2023/06/05 09:58:44;;;;;;;24.90;23.60;;;23.60;48.90;;;;;;5072668;28;20537;-58
2023/06/05 10:01:13;;;;;;;23.00;22.00;;;23.60;48.50;;;;;;5058485;28;20514;-58
2023/06/05 10:03:43;;;;;;;23.57;22.47;;;23.70;48.20;;;;;;5052618;28;20870;-60
2023/06/05 10:06:12;;;;;;;24.10;22.70;;;23.70;47.60;;;;;;5052309;28;20569;-58
2023/06/05 10:08:40;;;;;;;23.20;21.97;;;23.80;47.40;;;;;;5052491;28;20471;-58
2023/06/05 10:11:08;;;;;;;23.50;22.50;;;23.80;46.70;;;;;;5064450;28;20468;-59
2023/06/05 10:13:36;;;;;;;24.70;23.40;;;23.80;46.30;;;;;;5072266;28;20878;-58
2023/06/05 10:16:03;;;;;;;23.57;22.57;;;23.90;45.80;;;;;;5072207;28;20527;-58
2023/06/05 10:18:32;;;;;;;24.10;23.00;;;23.90;45.80;;;;;;5067647;28;20452;-60
2023/06/05 10:20:59;;;;;;;23.30;22.30;;;23.90;46.20;;;;;;5052227;28;20494;-63
2023/06/05 10:23:28;;;;;;;24.40;23.23;;;24.00;45.50;;;;;;5052210;28;20441;-61
2023/06/05 10:25:57;;;;;;;23.63;22.63;;;24.00;45.00;;;;;;5052044;28;20566;-63
2023/06/05 10:28:38;;;;;;;24.87;23.67;;;24.10;45.50;;;;;;5055065;28;20443;-64
2023/06/05 10:31:31;;;;;;;25.17;23.90;;;24.20;45.40;;;;;;5072079;28;20517;-65
2023/06/05 10:34:12;;;;;;;25.00;23.80;;;24.20;45.70;;;;;;5069549;28;20535;-65
2023/06/05 10:37:21;;;;;;;24.40;23.30;;;24.20;46.00;;;;;;5071821;28;20471;-65
2023/06/05 10:39:50;;;;;;;24.40;23.40;;;24.20;46.20;;;;;;5071417;28;20436;-65
2023/06/05 10:42:35;;;;;;;24.43;23.40;;;24.20;46.20;;;;;;5071452;28;20475;-64
2023/06/05 10:45:02;;;;;;;24.80;23.70;;;24.20;46.30;;;;;;5071744;28;20447;-65
2023/06/05 10:47:52;;;;;;;25.53;24.37;;;24.20;46.50;;;;;;5071650;28;20446;-65
2023/06/05 10:50:25;;;;;;;24.40;23.40;;;24.10;46.40;;;;;;5071805;28;20497;-66
2023/06/05 10:52:53;;;;;;;25.50;24.30;;;24.10;46.40;;;;;;5071709;28;20499;-65
2023/06/05 10:55:22;;;;;;;26.07;24.60;;;24.10;46.60;;;;;;5071610;28;20475;-65
2023/06/05 10:58:23;;;;;;;24.83;23.70;;;24.00;46.50;;;;;;5071554;28;20829;-66
2023/06/05 11:01:19;;;;;;;24.43;23.40;;;24.00;46.50;;;;;;5009555;28;21035;-66
2023/06/05 11:03:59;;;;;;;25.80;24.30;;;24.00;46.50;;;;;;5070764;28;20505;-66
2023/06/05 11:06:27;;;;;;;24.97;23.90;;;24.10;46.60;;;;;;5071339;28;20482;-65
2023/06/05 11:09:14;;;;;;;24.40;23.40;;;24.10;46.50;;;;;;5071405;28;20478;-65
2023/06/05 11:11:58;;;;;;;24.80;23.70;;;24.10;46.50;;;;;;5071549;28;20803;-65
2023/06/05 11:14:26;;;;;;;25.40;24.30;;;24.00;46.50;;;;;;5071505;28;20473;-65
2023/06/05 11:16:53;;;;;;;25.33;24.23;;;24.00;46.70;;;;;;5071336;28;20471;-65
2023/06/05 11:19:38;;;;;;;26.00;24.70;;;24.00;46.50;;;;;;5071465;28;21009;-65
2023/06/05 11:22:07;;;;;;;24.70;23.60;;;24.00;46.70;;;;;;5071385;28;20470;-65
2023/06/05 11:24:35;;;;;;;25.67;24.47;;;24.00;46.80;;;;;;5071315;28;20448;-64
2023/06/05 11:27:05;;;;;;;25.77;24.67;;;24.00;46.60;;;;;;5071104;28;20569;-64
2023/06/05 11:29:32;;;;;;;25.27;24.07;;;24.00;46.60;;;;;;5071696;28;20443;-65
2023/06/05 11:32:00;;;;;;;25.60;24.40;;;24.00;46.60;;;;;;5071313;28;20463;-66
2023/06/05 11:34:29;;;;;;;25.60;24.30;;;24.00;46.50;;;;;;5071243;28;20475;-65
2023/06/05 11:36:57;;;;;;;25.70;24.40;;;24.00;46.70;;;;;;5071096;28;20458;-65
2023/06/05 11:39:29;;;;;;;25.97;24.87;;;24.10;46.90;;;;;;5071081;28;20443;-64
2023/06/05 11:41:57;;;;;;;25.73;24.50;;;24.10;46.80;;;;;;5071151;28;20509;-65
2023/06/05 11:44:35;;;;;;;25.53;24.43;;;24.00;46.30;;;;;;5071227;28;20466;-64
2023/06/05 11:47:03;;;;;;;24.50;23.50;;;24.00;46.30;;;;;;5071162;28;20474;-66
2023/06/05 11:49:30;;;;;;;25.20;24.00;;;24.10;46.60;;;;;;5070980;28;20934;-66
2023/06/05 11:51:57;;;;;;;26.27;25.07;;;24.00;46.50;;;;;;5070931;28;20478;-64
2023/06/05 11:54:26;;;;;;;25.27;24.07;;;24.10;46.70;;;;;;5071105;28;20447;-65
2023/06/05 11:57:04;;;;;;;26.30;25.10;;;24.10;46.50;;;;;;5070902;28;20440;-64
2023/06/05 11:59:31;;;;;;;24.87;23.63;;;24.10;46.60;;;;;;5071058;28;20962;-65
2023/06/05 12:02:00;;;;;;;25.10;24.00;;;24.10;46.50;;;;;;5070919;28;20497;-65
2023/06/05 12:04:27;;;;;;;24.73;23.63;;;24.10;46.60;;;;;;5070949;28;20466;-65
2023/06/05 12:06:55;;;;;;;26.17;24.97;;;24.10;46.70;;;;;;5070761;28;20515;-64
2023/06/05 12:09:22;;;;;;;25.30;24.20;;;24.10;46.60;;;;;;5070788;28;20493;-65
2023/06/05 12:11:49;;;;;;;25.40;24.20;;;24.10;46.70;;;;;;5070892;28;20906;-66
2023/06/05 12:14:31;;;;;;;26.27;25.07;;;24.10;46.70;;;;;;5070791;28;20470;-65
2023/06/05 12:16:59;;;;;;;25.43;24.33;;;24.10;46.70;;;;;;5070742;28;20439;-64
2023/06/05 12:19:26;;;;;;;24.10;23.00;;;24.10;46.70;;;;;;5071245;28;20474;-65
2023/06/05 12:22:03;;;;;;;24.50;23.40;;;24.10;46.70;;;;;;5074444;28;20497;-65
2023/06/05 12:24:31;;;;;;;25.63;24.30;;;24.10;46.70;;;;;;5074460;28;20478;-64
2023/06/05 12:26:59;;;;;;;25.00;23.90;;;24.10;46.60;;;;;;5074028;28;20524;-64
2023/06/05 12:29:29;;;;;;;24.83;23.73;;;24.10;46.70;;;;;;5074300;28;20958;-64
2023/06/05 12:31:56;;;;;;;25.30;24.20;;;24.10;46.70;;;;;;5074302;28;20506;-65
2023/06/05 12:34:46;;;;;;;25.00;23.80;;;24.10;46.70;;;;;;5074245;28;20480;-65
2023/06/05 12:37:21;;;;;;;26.50;25.10;;;24.10;46.60;;;;;;5074187;28;20439;-65
2023/06/05 12:39:48;;;;;;;24.03;23.03;;;24.10;46.50;;;;;;5074224;28;20535;-66